createdAt,value
2022-09-04T00:02:17.288Z,3.70
2022-09-04T00:07:45.271Z,4.35
2022-09-04T00:12:56.314Z,3.78
2022-09-04T00:18:07.610Z,4.57
2022-09-04T00:23:17.742Z,4.40
2022-09-04T00:28:44.522Z,4.22
2022-09-04T00:34:09.810Z,4.25
2022-09-04T00:39:15.589Z,3.90
2022-09-04T00:44:35.467Z,4.40
2022-09-04T00:49:58.829Z,4.28
2022-09-04T00:55:43.484Z,4.07
2022-09-04T01:00:47.024Z,4.40
2022-09-04T01:06:28.802Z,4.70
2022-09-04T01:12:07.216Z,4.65
2022-09-04T01:17:26.946Z,4.70
2022-09-04T01:22:45.221Z,4.53
2022-09-04T01:28:04.077Z,4.47
2022-09-04T01:33:14.890Z,4.15
2022-09-04T01:38:44.729Z,4.80
2022-09-04T01:43:46.034Z,4.00
2022-09-04T01:48:56.249Z,4.70
2022-09-04T01:54:28.230Z,4.73
2022-09-04T01:59:44.865Z,4.33
2022-09-04T02:04:52.289Z,4.40
2022-09-04T02:10:16.861Z,3.88
2022-09-04T02:15:30.037Z,3.80
2022-09-04T02:20:31.201Z,4.05
2022-09-04T02:25:51.982Z,4.17
2022-09-04T02:31:14.059Z,4.10
2022-09-04T02:36:33.154Z,4.07
2022-09-04T02:41:46.494Z,4.18
2022-09-04T02:47:13.958Z,4.35
2022-09-04T02:52:53.629Z,4.22
2022-09-04T02:58:30.598Z,4.68
2022-09-04T03:03:41.507Z,5.13
2022-09-04T03:08:46.725Z,4.60
2022-09-04T03:14:16.872Z,5.22
2022-09-04T03:19:35.164Z,5.23
2022-09-04T03:25:06.153Z,5.83
2022-09-04T03:30:10.148Z,6.60
2022-09-04T03:35:26.417Z,6.27
2022-09-04T03:40:44.854Z,5.73
2022-09-04T03:46:37.253Z,5.53
2022-09-04T03:51:57.494Z,6.17
2022-09-04T03:57:09.540Z,5.93
2022-09-04T04:02:35.714Z,5.97
2022-09-04T04:07:52.141Z,6.60
2022-09-04T04:13:03.554Z,6.63
2022-09-04T04:18:30.679Z,6.80
2022-09-04T04:23:57.322Z,7.87
2022-09-04T04:29:24.738Z,7.30
2022-09-04T04:34:39.861Z,6.93
2022-09-04T04:39:51.818Z,6.83
2022-09-04T04:45:20.852Z,5.80
2022-09-04T04:50:50.250Z,5.93
2022-09-04T04:56:13.586Z,6.10
2022-09-04T05:01:27.181Z,5.60
2022-09-04T05:06:42.514Z,5.33
2022-09-04T05:12:02.125Z,5.07
2022-09-04T05:17:03.405Z,4.57
2022-09-04T05:22:23.917Z,4.37
2022-09-04T05:27:32.081Z,4.50
2022-09-04T05:32:40.314Z,5.03
2022-09-04T05:37:56.086Z,4.30
2022-09-04T05:43:16.087Z,4.78
2022-09-04T05:48:33.623Z,4.87
2022-09-04T05:54:03.352Z,4.50
2022-09-04T05:59:35.354Z,4.68
2022-09-04T06:04:51.308Z,5.07
2022-09-04T06:10:14.726Z,5.60
2022-09-04T06:15:34.697Z,5.80
2022-09-04T06:20:58.007Z,5.60
2022-09-04T06:26:02.220Z,5.80
2022-09-04T06:31:15.544Z,5.72
2022-09-04T06:36:22.601Z,6.38
2022-09-04T06:41:42.354Z,7.03
2022-09-04T06:47:10.748Z,6.60
2022-09-04T06:52:30.662Z,5.70
2022-09-04T06:57:57.909Z,6.03
2022-09-04T07:03:20.389Z,6.13
2022-09-04T07:08:30.891Z,5.43
2022-09-04T07:14:03.623Z,6.00
2022-09-04T07:19:23.253Z,6.13
2022-09-04T07:24:30.231Z,5.63
2022-09-04T07:29:39.325Z,5.22
2022-09-04T07:35:07.242Z,5.07
2022-09-04T07:40:14.954Z,5.35
2022-09-04T07:45:36.665Z,4.35
2022-09-04T07:51:10.141Z,3.85
2022-09-04T07:56:34.633Z,4.30
2022-09-04T08:01:46.683Z,3.70
2022-09-04T08:07:00.553Z,3.20
2022-09-04T08:12:48.774Z,2.88
2022-09-04T08:18:16.639Z,2.17
2022-09-04T08:23:41.798Z,2.78
2022-09-04T08:28:56.241Z,2.80
2022-09-04T08:34:34.289Z,2.10
2022-09-04T08:39:38.074Z,2.15
2022-09-04T08:45:14.624Z,1.95
2022-09-04T08:50:29.091Z,1.98
2022-09-04T08:55:55.226Z,2.00
2022-09-04T09:00:56.523Z,1.90
2022-09-04T09:06:31.263Z,2.22
2022-09-04T09:11:53.874Z,1.80
2022-09-04T09:17:13.249Z,2.20
2022-09-04T09:22:17.399Z,1.98
2022-09-04T09:27:45.677Z,1.52
2022-09-04T09:33:02.568Z,1.95
2022-09-04T09:38:25.152Z,1.60
2022-09-04T09:43:50.884Z,1.88
2022-09-04T09:49:13.880Z,1.88
2022-09-04T09:54:47.514Z,1.40
2022-09-04T10:00:06.285Z,1.75
2022-09-04T10:05:29.565Z,2.08
2022-09-04T10:10:45.335Z,1.83
2022-09-04T10:15:58.688Z,1.65
2022-09-04T10:21:19.944Z,1.20
2022-09-04T10:26:41.017Z,1.58
2022-09-04T10:32:00.467Z,1.50
2022-09-04T10:37:20.320Z,1.58
2022-09-04T10:42:49.870Z,1.67
2022-09-04T10:48:12.470Z,1.40
2022-09-04T10:53:50.517Z,1.50
2022-09-04T10:59:31.077Z,1.08
2022-09-04T11:05:14.954Z,1.08
2022-09-04T11:10:30.300Z,1.15
2022-09-04T11:15:51.839Z,1.30
2022-09-04T11:21:30.276Z,1.15
2022-09-04T11:26:54.150Z,1.00
2022-09-04T11:31:58.708Z,0.98
2022-09-04T11:37:16.934Z,1.35
2022-09-04T11:42:46.443Z,1.58
2022-09-04T11:48:36.936Z,1.30
2022-09-04T11:53:52.950Z,1.23
2022-09-04T11:59:23.988Z,1.10
2022-09-04T12:04:54.499Z,1.23
2022-09-04T12:10:18.695Z,1.23
2022-09-04T12:15:27.192Z,1.48
2022-09-04T12:21:13.545Z,1.10
2022-09-04T12:27:00.833Z,1.10
2022-09-04T12:32:13.628Z,1.20
2022-09-04T12:37:22.301Z,1.30
2022-09-04T12:42:23.389Z,1.30
2022-09-04T12:47:58.037Z,1.40
2022-09-04T12:53:43.584Z,1.30
2022-09-04T12:59:17.919Z,1.27
2022-09-04T13:04:20.132Z,1.27
2022-09-04T13:09:33.753Z,1.33
2022-09-04T13:14:52.143Z,1.33
2022-09-04T13:20:13.224Z,1.15
2022-09-04T13:25:32.035Z,1.10
2022-09-04T13:30:40.318Z,1.30
2022-09-04T13:35:50.905Z,1.13
2022-09-04T13:41:17.583Z,1.30
2022-09-04T13:46:32.609Z,1.27
2022-09-04T13:51:39.441Z,1.45
2022-09-04T13:57:13.113Z,1.30
2022-09-04T14:02:16.029Z,1.30
2022-09-04T14:07:26.182Z,1.02
2022-09-04T14:12:28.770Z,1.17
2022-09-04T14:17:40.082Z,1.50
2022-09-04T14:23:02.009Z,1.30
2022-09-04T14:28:34.171Z,1.33
2022-09-04T14:33:47.389Z,1.30
2022-09-04T14:39:17.441Z,1.10
2022-09-04T14:44:45.626Z,1.10
2022-09-04T14:49:50.595Z,1.30
2022-09-04T14:54:54.891Z,0.90
2022-09-04T15:00:10.814Z,1.10
2022-09-04T15:05:19.832Z,1.20
2022-09-04T15:10:34.467Z,1.23
2022-09-04T15:15:40.222Z,1.70
2022-09-04T15:20:57.290Z,1.40
2022-09-04T15:26:09.824Z,1.33
2022-09-04T15:31:29.114Z,1.58
2022-09-04T15:36:31.048Z,1.13
2022-09-04T15:41:33.055Z,1.30
2022-09-04T15:46:40.433Z,1.15
2022-09-04T15:51:55.408Z,1.23
2022-09-04T15:57:01.168Z,1.20
2022-09-04T16:02:11.880Z,0.90
2022-09-04T16:07:19.726Z,1.20
2022-09-04T16:12:40.009Z,1.20
2022-09-04T16:17:47.173Z,1.20
2022-09-04T16:22:57.761Z,1.02
2022-09-04T16:28:07.572Z,1.05
2022-09-04T16:33:27.229Z,1.10
2022-09-04T16:38:46.577Z,0.95
2022-09-04T16:44:10.293Z,1.50
2022-09-04T16:49:24.829Z,1.10
2022-09-04T16:54:36.512Z,0.90
2022-09-04T16:59:46.271Z,1.15
2022-09-04T17:04:52.900Z,1.20
2022-09-04T17:10:06.597Z,1.42
2022-09-04T17:15:27.101Z,1.10
2022-09-04T17:21:58.330Z,1.00
2022-09-04T17:29:11.494Z,0.98
2022-09-04T17:31:52.657Z,1.30
2022-09-04T17:40:41.016Z,1.20
2022-09-04T17:42:33.616Z,1.30
2022-09-04T17:47:43.125Z,1.70
2022-09-04T17:52:53.169Z,2.15
2022-09-04T17:58:08.594Z,2.00
2022-09-04T18:03:28.990Z,2.50
2022-09-04T18:08:55.900Z,2.03
2022-09-04T18:14:10.534Z,2.10
2022-09-04T18:19:44.250Z,1.30
2022-09-04T18:24:54.562Z,1.58
2022-09-04T18:34:01.410Z,1.58
2022-09-04T18:37:23.985Z,1.55
2022-09-04T18:44:58.486Z,1.35
2022-09-04T18:50:42.918Z,1.33
2022-09-04T18:52:41.798Z,1.42
2022-09-04T18:57:54.577Z,1.60
2022-09-04T19:03:25.543Z,1.48
2022-09-04T19:08:33.865Z,1.88
2022-09-04T19:13:46.573Z,1.92
2022-09-04T19:19:01.882Z,1.75
2022-09-04T19:24:34.195Z,1.65
2022-09-04T19:30:19.744Z,2.00
2022-09-04T19:35:37.563Z,1.83
2022-09-04T19:46:01.038Z,1.60
2022-09-04T19:46:45.254Z,1.70
2022-09-04T19:53:32.375Z,1.70
2022-09-04T19:58:07.913Z,1.60
2022-09-04T20:03:31.121Z,1.77
2022-09-04T20:08:39.489Z,1.40
2022-09-04T20:13:51.952Z,2.10
2022-09-04T20:19:08.030Z,1.38
2022-09-04T20:24:41.661Z,1.60
2022-09-04T20:30:21.728Z,1.70
2022-09-04T20:35:39.593Z,2.00
2022-09-04T20:40:43.291Z,2.00
2022-09-04T20:52:43.708Z,2.03
2022-09-04T20:53:07.179Z,1.63
2022-09-04T21:00:16.872Z,3.85
2022-09-04T21:03:19.487Z,1.80
2022-09-04T21:08:34.371Z,1.70
2022-09-04T21:13:53.110Z,1.77
2022-09-04T21:19:28.525Z,2.00
2022-09-04T21:25:02.302Z,1.45
2022-09-04T21:30:47.709Z,1.63
2022-09-04T21:36:25.282Z,1.70
2022-09-04T21:41:47.750Z,1.50
2022-09-04T21:47:01.123Z,2.05
2022-09-04T21:52:26.146Z,1.98
2022-09-04T22:02:28.499Z,2.28
2022-09-04T22:03:29.967Z,2.00
2022-09-04T22:12:33.031Z,2.17
2022-09-04T22:14:18.084Z,2.28
2022-09-04T22:19:36.314Z,2.00
2022-09-04T22:25:05.673Z,2.13
2022-09-04T22:30:06.737Z,2.30
2022-09-04T22:35:35.807Z,2.37
2022-09-04T22:40:57.264Z,2.00
2022-09-04T22:46:31.402Z,2.17
2022-09-04T22:52:10.279Z,1.97
2022-09-04T22:57:20.998Z,2.33
2022-09-04T23:03:07.690Z,1.83
2022-09-04T23:13:44.349Z,1.90
2022-09-04T23:14:18.456Z,2.00
2022-09-04T23:26:07.354Z,2.00
2022-09-04T23:26:44.826Z,1.60
2022-09-04T23:30:55.580Z,1.93
2022-09-04T23:36:17.351Z,1.90
2022-09-04T23:41:38.597Z,1.87
2022-09-04T23:47:46.938Z,2.20
2022-09-04T23:52:49.058Z,1.83
2022-09-04T23:58:51.901Z,2.20
